createdAt,value
2019-05-28T00:00:43.360Z,19.40
2019-05-28T00:03:14.679Z,19.40
2019-05-28T00:05:45.351Z,19.40
2019-05-28T00:08:15.921Z,19.40
2019-05-28T00:10:47.620Z,19.40
2019-05-28T00:13:18.083Z,19.50
2019-05-28T00:15:48.866Z,19.40
2019-05-28T00:18:19.351Z,19.40
2019-05-28T00:20:51.318Z,19.50
2019-05-28T00:23:21.838Z,19.50
2019-05-28T00:25:52.375Z,19.50
2019-05-28T00:28:23.115Z,19.50
2019-05-28T00:30:53.829Z,19.50
2019-05-28T00:33:24.321Z,19.60
2019-05-28T00:35:54.916Z,19.50
2019-05-28T00:38:28.839Z,19.40
2019-05-28T00:40:59.873Z,19.40
2019-05-28T00:43:31.927Z,19.30
2019-05-28T00:46:03.046Z,19.30
2019-05-28T00:48:34.547Z,19.30
2019-05-28T00:51:05.230Z,19.40
2019-05-28T00:53:35.763Z,19.30
2019-05-28T00:56:06.887Z,19.10
2019-05-28T00:58:38.097Z,19.10
2019-05-28T01:01:08.700Z,18.90
2019-05-28T01:03:39.282Z,18.80
2019-05-28T01:06:09.723Z,18.80
2019-05-28T01:08:40.192Z,18.80
2019-05-28T01:11:10.978Z,18.80
2019-05-28T01:13:41.844Z,18.70
2019-05-28T01:16:12.538Z,18.70
2019-05-28T01:18:43.175Z,18.70
2019-05-28T01:21:14.001Z,18.70
2019-05-28T01:23:44.715Z,18.70
2019-05-28T01:26:15.391Z,18.60
2019-05-28T01:28:46.123Z,18.50
2019-05-28T01:31:16.581Z,18.50
2019-05-28T01:33:47.284Z,18.50
2019-05-28T01:36:17.825Z,18.40
2019-05-28T01:38:48.267Z,18.30
2019-05-28T01:41:18.866Z,18.30
2019-05-28T01:43:49.476Z,18.30
2019-05-28T01:46:19.995Z,18.20
2019-05-28T01:48:50.706Z,18.10
2019-05-28T01:51:21.179Z,18.10
2019-05-28T01:53:53.011Z,18.00
2019-05-28T01:56:23.653Z,17.80
2019-05-28T01:58:54.421Z,17.70
2019-05-28T02:01:25.156Z,17.70
2019-05-28T02:03:55.894Z,17.70
2019-05-28T02:06:27.028Z,17.80
2019-05-28T02:08:57.491Z,17.70
2019-05-28T02:11:28.113Z,17.80
2019-05-28T02:13:58.675Z,17.90
2019-05-28T02:16:29.225Z,17.90
2019-05-28T02:18:59.975Z,17.90
2019-05-28T02:21:30.514Z,18.00
2019-05-28T02:24:01.380Z,18.00
2019-05-28T02:26:32.412Z,18.00
2019-05-28T02:29:03.103Z,17.90
2019-05-28T02:31:33.852Z,17.90
2019-05-28T02:34:05.007Z,17.80
2019-05-28T02:36:35.641Z,17.80
2019-05-28T02:39:09.243Z,17.80
2019-05-28T02:41:39.630Z,17.80
2019-05-28T02:44:10.286Z,17.70
2019-05-28T02:46:40.822Z,17.70
2019-05-28T02:49:11.536Z,17.70
2019-05-28T02:51:43.175Z,17.70
2019-05-28T02:54:13.921Z,17.70
2019-05-28T03:00:11.933Z,17.70
2019-05-28T03:02:45.563Z,17.70
2019-05-28T03:05:16.717Z,17.80
2019-05-28T03:07:50.189Z,17.80
2019-05-28T03:10:59.522Z,17.80
2019-05-28T03:13:06.941Z,17.80
2019-05-28T03:15:40.791Z,17.90
2019-05-28T03:18:13.366Z,17.80
2019-05-28T03:20:44.885Z,17.80
2019-05-28T03:23:16.712Z,17.80
2019-05-28T03:25:47.437Z,17.80
2019-05-28T03:28:18.203Z,18.00
2019-05-28T03:30:48.808Z,17.90
2019-05-28T03:33:19.648Z,17.90
2019-05-28T03:35:52.466Z,17.90
2019-05-28T03:38:25.288Z,17.80
2019-05-28T03:40:55.798Z,17.80
2019-05-28T03:43:26.578Z,17.90
2019-05-28T03:45:57.060Z,17.80
2019-05-28T03:48:28.153Z,17.90
2019-05-28T03:50:59.121Z,17.90
2019-05-28T03:53:36.304Z,18.00
2019-05-28T03:56:06.850Z,18.00
2019-05-28T03:58:37.386Z,18.00
2019-05-28T04:01:08.093Z,18.10
2019-05-28T04:03:38.958Z,18.00
2019-05-28T04:06:09.482Z,18.00
2019-05-28T04:08:40.151Z,18.00
2019-05-28T04:11:10.853Z,18.00
2019-05-28T04:13:41.577Z,17.90
2019-05-28T04:16:12.186Z,18.00
2019-05-28T04:18:43.062Z,17.90
2019-05-28T04:21:13.510Z,17.90
2019-05-28T04:23:44.632Z,17.90
2019-05-28T04:26:15.361Z,18.00
2019-05-28T04:28:45.997Z,18.10
2019-05-28T04:31:16.865Z,18.10
2019-05-28T04:33:47.455Z,18.10
2019-05-28T04:36:18.167Z,18.10
2019-05-28T04:38:49.336Z,18.10
2019-05-28T04:41:21.381Z,18.20
2019-05-28T04:43:52.107Z,18.10
2019-05-28T04:46:22.792Z,18.10
2019-05-28T04:48:53.311Z,18.00
2019-05-28T04:51:23.902Z,18.00
2019-05-28T04:53:54.928Z,18.00
2019-05-28T04:56:25.587Z,18.00
2019-05-28T04:58:57.149Z,18.00
2019-05-28T05:01:28.119Z,18.00
2019-05-28T05:03:58.607Z,17.90
2019-05-28T05:06:29.092Z,18.00
2019-05-28T05:09:36.157Z,18.00
2019-05-28T05:12:07.785Z,18.10
2019-05-28T05:14:38.605Z,18.10
2019-05-28T05:17:09.023Z,18.10
2019-05-28T05:19:41.225Z,18.10
2019-05-28T05:22:11.919Z,18.00
2019-05-28T05:24:42.524Z,18.10
2019-05-28T05:27:13.218Z,18.20
2019-05-28T05:29:43.746Z,18.30
2019-05-28T05:32:14.193Z,18.40
2019-05-28T05:34:44.724Z,18.30
2019-05-28T05:37:15.155Z,18.50
2019-05-28T05:39:48.883Z,18.70
2019-05-28T05:42:18.440Z,18.80
2019-05-28T05:44:49.308Z,18.90
2019-05-28T05:47:19.880Z,18.80
2019-05-28T05:49:50.442Z,18.90
2019-05-28T05:52:21.041Z,18.70
2019-05-28T05:54:52.031Z,18.80
2019-05-28T05:57:22.470Z,18.90
2019-05-28T05:59:53.151Z,18.90
2019-05-28T06:02:23.661Z,19.00
2019-05-28T06:04:54.435Z,19.00
2019-05-28T06:07:25.112Z,19.00
2019-05-28T06:09:55.850Z,19.00
2019-05-28T06:12:26.340Z,19.00
2019-05-28T06:14:57.186Z,19.20
2019-05-28T06:17:27.649Z,19.30
2019-05-28T06:19:58.095Z,19.40
2019-05-28T06:22:29.041Z,19.40
2019-05-28T06:24:59.560Z,19.40
2019-05-28T06:27:30.237Z,19.60
2019-05-28T06:30:00.816Z,19.60
2019-05-28T06:32:33.485Z,19.50
2019-05-28T06:35:03.893Z,19.50
2019-05-28T06:37:34.309Z,19.40
2019-05-28T06:40:06.257Z,19.50
2019-05-28T06:42:39.808Z,19.60
2019-05-28T06:45:10.224Z,19.60
2019-05-28T06:47:44.959Z,19.70
2019-05-28T06:50:14.188Z,19.90
2019-05-28T06:52:44.981Z,20.10
2019-05-28T06:55:18.199Z,20.10
2019-05-28T06:57:48.849Z,20.20
2019-05-28T07:00:19.610Z,20.30
2019-05-28T07:02:50.186Z,20.20
2019-05-28T07:05:20.935Z,20.20
2019-05-28T07:07:51.623Z,20.20
2019-05-28T07:10:27.838Z,20.30
2019-05-28T07:12:58.327Z,20.50
2019-05-28T07:15:28.986Z,20.60
2019-05-28T07:17:59.827Z,20.70
2019-05-28T07:20:30.268Z,20.90
2019-05-28T07:23:00.897Z,20.90
2019-05-28T07:25:31.469Z,21.00
2019-05-28T07:28:11.017Z,21.00
2019-05-28T07:30:34.001Z,21.00
2019-05-28T07:33:04.760Z,20.90
2019-05-28T07:35:45.407Z,20.90
2019-05-28T07:38:07.426Z,21.00
2019-05-28T07:40:38.102Z,21.00
2019-05-28T07:43:08.560Z,21.00
2019-05-28T07:45:38.939Z,21.00
2019-05-28T07:48:09.531Z,21.20
2019-05-28T07:50:40.091Z,21.20
2019-05-28T07:53:10.629Z,21.30
2019-05-28T07:55:41.063Z,21.40
2019-05-28T07:58:11.679Z,21.50
2019-05-28T08:00:42.476Z,21.60
2019-05-28T08:03:12.911Z,21.70
2019-05-28T08:05:43.307Z,21.90
2019-05-28T08:08:18.168Z,22.00
2019-05-28T08:10:49.642Z,22.00
2019-05-28T08:13:20.290Z,22.10
2019-05-28T08:15:50.839Z,22.20
2019-05-28T08:18:21.619Z,22.50
2019-05-28T08:20:52.032Z,22.60
2019-05-28T08:23:22.538Z,22.60
2019-05-28T08:25:53.171Z,22.50
2019-05-28T08:28:23.772Z,22.60
2019-05-28T08:30:54.204Z,22.70
2019-05-28T08:33:24.777Z,22.70
2019-05-28T08:35:55.941Z,22.80
2019-05-28T08:38:26.487Z,22.90
2019-05-28T08:40:57.045Z,23.00
2019-05-28T08:43:27.693Z,23.20
2019-05-28T08:45:58.127Z,23.40
2019-05-28T08:48:28.562Z,23.50
2019-05-28T08:50:59.106Z,23.40
2019-05-28T08:53:29.540Z,23.50
2019-05-28T08:56:01.094Z,23.60
2019-05-28T08:58:31.802Z,23.60
2019-05-28T09:01:02.496Z,23.70
2019-05-28T09:03:33.126Z,23.60
2019-05-28T09:06:03.570Z,23.50
2019-05-28T09:08:39.288Z,23.50
2019-05-28T09:11:07.186Z,23.50
2019-05-28T09:13:38.149Z,23.60
2019-05-28T09:16:08.577Z,23.80
2019-05-28T09:18:39.031Z,23.90
2019-05-28T09:21:09.472Z,24.00
2019-05-28T09:23:58.128Z,24.00
2019-05-28T09:26:28.650Z,24.10
2019-05-28T09:28:59.148Z,24.10
2019-05-28T09:31:29.653Z,24.10
2019-05-28T09:34:00.089Z,24.10
2019-05-28T09:36:30.577Z,24.20
2019-05-28T09:39:00.965Z,24.30
2019-05-28T09:41:32.471Z,24.20
2019-05-28T09:44:02.927Z,24.10
2019-05-28T09:46:33.459Z,23.90
2019-05-28T09:49:04.104Z,24.00
2019-05-28T09:51:34.606Z,24.10
2019-05-28T09:54:17.113Z,24.10
2019-05-28T09:56:47.561Z,24.10
2019-05-28T09:59:18.148Z,23.90
2019-05-28T10:01:48.830Z,23.90
2019-05-28T10:04:19.229Z,24.20
2019-05-28T10:06:50.022Z,24.40
2019-05-28T10:09:20.452Z,24.50
2019-05-28T10:11:50.902Z,24.70
2019-05-28T10:14:21.336Z,24.60
2019-05-28T10:16:51.754Z,24.50
2019-05-28T10:19:22.162Z,24.60
2019-05-28T10:21:52.602Z,24.70
2019-05-28T10:24:23.258Z,24.90
2019-05-28T10:26:53.708Z,25.10
2019-05-28T10:29:24.139Z,25.40
2019-05-28T10:31:54.551Z,25.50
2019-05-28T10:34:25.083Z,25.40
2019-05-28T10:36:55.524Z,25.40
2019-05-28T10:39:26.471Z,25.50
2019-05-28T10:41:56.888Z,25.40
2019-05-28T10:44:27.495Z,25.60
2019-05-28T10:46:58.005Z,25.90
2019-05-28T10:49:28.406Z,25.90
2019-05-28T10:51:59.034Z,25.80
2019-05-28T10:54:29.631Z,25.80
2019-05-28T10:57:00.157Z,25.70
2019-05-28T10:59:30.800Z,25.40
2019-05-28T11:02:01.620Z,25.50
2019-05-28T11:04:32.205Z,25.80
2019-05-28T11:07:02.962Z,26.00
2019-05-28T11:09:33.420Z,26.10
2019-05-28T11:12:04.497Z,26.20
2019-05-28T11:14:41.727Z,26.50
2019-05-28T11:17:12.147Z,26.70
2019-05-28T11:19:42.867Z,26.60
2019-05-28T11:22:13.378Z,26.10
2019-05-28T11:24:44.043Z,25.90
2019-05-28T11:27:14.439Z,25.60
2019-05-28T11:29:44.797Z,25.40
2019-05-28T11:32:15.277Z,25.20
2019-05-28T11:34:45.682Z,25.00
2019-05-28T11:37:16.332Z,24.80
2019-05-28T11:39:46.842Z,24.50
2019-05-28T11:42:17.492Z,24.30
2019-05-28T11:44:47.948Z,24.20
2019-05-28T11:47:18.367Z,24.10
2019-05-28T11:49:48.785Z,24.00
2019-05-28T11:52:19.401Z,23.90
2019-05-28T11:54:49.798Z,23.80
2019-05-28T11:57:20.582Z,23.60
2019-05-28T11:59:50.974Z,23.30
2019-05-28T12:02:21.538Z,23.10
2019-05-28T12:04:53.626Z,23.00
2019-05-28T12:07:26.410Z,23.00
2019-05-28T12:09:56.220Z,22.90
2019-05-28T12:12:26.756Z,22.70
2019-05-28T12:14:57.144Z,22.60
2019-05-28T12:17:41.402Z,22.40
2019-05-28T12:19:59.706Z,22.50
2019-05-28T12:22:30.476Z,22.50
2019-05-28T12:25:02.484Z,22.60
2019-05-28T12:27:33.219Z,22.70
2019-05-28T12:30:03.854Z,22.70
2019-05-28T12:32:34.383Z,22.60
2019-05-28T12:35:05.320Z,22.50
2019-05-28T12:37:47.882Z,22.30
2019-05-28T12:40:09.737Z,22.20
2019-05-28T12:42:40.289Z,22.00
2019-05-28T12:45:12.381Z,21.90
2019-05-28T12:47:42.829Z,21.80
2019-05-28T12:50:19.723Z,21.70
2019-05-28T12:52:47.488Z,21.70
2019-05-28T12:55:19.054Z,21.70
2019-05-28T12:57:49.842Z,21.70
2019-05-28T13:00:21.321Z,21.70
2019-05-28T13:02:51.982Z,21.70
2019-05-28T13:05:24.582Z,21.60
2019-05-28T13:08:07.469Z,21.40
2019-05-28T13:10:27.075Z,21.30
2019-05-28T13:12:57.916Z,21.20
2019-05-28T13:15:28.392Z,21.20
2019-05-28T13:17:58.938Z,21.20
2019-05-28T13:20:29.362Z,21.20
2019-05-28T13:22:59.878Z,21.30
2019-05-28T13:25:30.272Z,21.50
2019-05-28T13:28:00.792Z,21.50
2019-05-28T13:30:31.398Z,21.60
2019-05-28T13:33:01.967Z,21.60
2019-05-28T13:35:32.628Z,21.60
2019-05-28T13:38:03.485Z,21.70
2019-05-28T13:40:34.028Z,21.80
2019-05-28T13:43:04.785Z,21.70
2019-05-28T13:45:35.302Z,21.70
2019-05-28T13:48:06.053Z,21.80
2019-05-28T13:50:36.544Z,21.60
2019-05-28T13:53:07.145Z,21.50
2019-05-28T13:55:37.531Z,21.50
2019-05-28T13:58:08.354Z,21.40
2019-05-28T14:00:39.265Z,21.20
2019-05-28T14:03:10.178Z,21.10
2019-05-28T14:05:41.376Z,20.90
2019-05-28T14:08:12.119Z,20.90
2019-05-28T14:10:42.707Z,20.90
2019-05-28T14:13:13.231Z,21.00
2019-05-28T14:15:43.671Z,21.10
2019-05-28T14:18:14.379Z,21.20
2019-05-28T14:20:44.905Z,21.20
2019-05-28T14:23:15.589Z,21.30
2019-05-28T14:25:46.137Z,21.30
2019-05-28T14:28:16.696Z,21.30
2019-05-28T14:30:59.420Z,21.40
2019-05-28T14:33:19.352Z,21.40
2019-05-28T14:35:49.781Z,21.50
2019-05-28T14:38:20.244Z,21.50
2019-05-28T14:40:51.920Z,21.50
2019-05-28T14:43:22.986Z,21.40
2019-05-28T14:45:53.987Z,21.30
2019-05-28T14:48:24.354Z,21.20
2019-05-28T14:50:55.090Z,21.10
2019-05-28T14:53:25.479Z,20.90
2019-05-28T14:55:55.989Z,20.80
2019-05-28T14:58:26.514Z,20.60
2019-05-28T15:00:56.944Z,20.40
2019-05-28T15:03:27.364Z,20.00
2019-05-28T15:05:58.013Z,19.50
2019-05-28T15:08:28.491Z,19.10
2019-05-28T15:10:59.253Z,18.60
2019-05-28T15:13:29.878Z,18.10
2019-05-28T15:16:00.299Z,17.90
2019-05-28T15:18:30.783Z,17.80
2019-05-28T15:21:01.313Z,17.70
2019-05-28T15:23:31.807Z,17.70
2019-05-28T15:26:02.347Z,17.70
2019-05-28T15:28:33.002Z,17.80
2019-05-28T15:31:03.609Z,17.90
2019-05-28T15:33:34.077Z,17.90
2019-05-28T15:36:04.548Z,18.00
2019-05-28T15:38:35.098Z,17.90
2019-05-28T15:41:05.487Z,17.90
2019-05-28T15:43:36.319Z,17.90
2019-05-28T15:46:08.670Z,17.90
2019-05-28T15:48:39.346Z,17.90
2019-05-28T15:51:09.733Z,17.90
2019-05-28T15:53:40.335Z,17.80
2019-05-28T15:56:10.900Z,17.70
2019-05-28T15:58:41.898Z,17.70
2019-05-28T16:01:12.641Z,17.70
2019-05-28T16:03:43.763Z,17.90
2019-05-28T16:06:14.571Z,17.90
2019-05-28T16:08:45.457Z,17.90
2019-05-28T16:11:16.057Z,18.00
2019-05-28T16:13:46.916Z,18.00
2019-05-28T16:16:17.903Z,17.90
2019-05-28T16:18:48.527Z,18.00
2019-05-28T16:21:19.562Z,18.00
2019-05-28T16:23:50.240Z,18.10
2019-05-28T16:26:20.931Z,18.10
2019-05-28T16:28:52.744Z,18.10
2019-05-28T16:31:23.460Z,18.10
2019-05-28T16:33:53.910Z,18.00
2019-05-28T16:36:24.648Z,18.00
2019-05-28T16:38:55.250Z,18.00
2019-05-28T16:41:26.016Z,18.00
2019-05-28T16:43:56.910Z,18.00
2019-05-28T16:46:27.649Z,18.10
2019-05-28T16:48:58.067Z,18.10
2019-05-28T16:51:28.710Z,18.10
2019-05-28T16:53:59.521Z,18.20
2019-05-28T16:56:30.255Z,18.30
2019-05-28T16:59:01.157Z,18.30
2019-05-28T17:01:31.605Z,18.30
2019-05-28T17:04:02.681Z,18.40
2019-05-28T17:06:33.575Z,18.40
2019-05-28T17:09:05.973Z,18.50
2019-05-28T17:11:38.845Z,18.50
2019-05-28T17:14:09.419Z,18.40
2019-05-28T17:16:40.128Z,18.50
2019-05-28T17:19:11.059Z,18.50
2019-05-28T17:21:43.045Z,18.60
2019-05-28T17:24:13.819Z,18.60
2019-05-28T17:26:44.435Z,18.50
2019-05-28T17:29:15.312Z,18.50
2019-05-28T17:31:45.796Z,18.50
2019-05-28T17:34:16.418Z,18.40
2019-05-28T17:36:47.199Z,18.40
2019-05-28T17:39:17.794Z,18.50
2019-05-28T17:41:48.380Z,18.50
2019-05-28T17:44:19.214Z,18.30
2019-05-28T17:46:49.967Z,18.20
2019-05-28T17:49:20.682Z,18.10
2019-05-28T17:51:51.498Z,18.10
2019-05-28T17:54:22.409Z,18.20
2019-05-28T17:56:53.227Z,18.40
2019-05-28T17:59:23.804Z,18.30
2019-05-28T18:01:54.271Z,18.20
2019-05-28T18:04:24.705Z,18.20
2019-05-28T18:06:55.398Z,18.20
2019-05-28T18:09:26.368Z,18.30
2019-05-28T18:11:57.354Z,18.30
2019-05-28T18:14:28.542Z,18.20
2019-05-28T18:16:59.116Z,18.10
2019-05-28T18:19:30.037Z,18.10
2019-05-28T18:22:00.730Z,18.00
2019-05-28T18:24:31.350Z,18.00
2019-05-28T18:27:01.978Z,17.90
2019-05-28T18:29:32.521Z,17.80
2019-05-28T18:32:03.435Z,17.80
2019-05-28T18:34:34.190Z,17.70
2019-05-28T18:37:04.646Z,17.70
2019-05-28T18:39:35.373Z,17.60
2019-05-28T18:42:10.124Z,17.60
2019-05-28T18:44:41.557Z,17.60
2019-05-28T18:47:12.439Z,17.60
2019-05-28T18:49:42.945Z,17.60
2019-05-28T18:52:13.478Z,17.60
2019-05-28T18:54:44.063Z,17.60
2019-05-28T18:57:14.666Z,17.60
2019-05-28T18:59:45.888Z,17.60
2019-05-28T19:02:16.755Z,17.60
2019-05-28T19:04:47.328Z,17.70
2019-05-28T19:07:17.892Z,17.70
2019-05-28T19:09:48.500Z,17.70
2019-05-28T19:12:19.416Z,17.70
2019-05-28T19:14:50.393Z,17.70
2019-05-28T19:17:22.411Z,17.60
2019-05-28T19:19:53.028Z,17.60
2019-05-28T19:22:23.639Z,17.60
2019-05-28T19:24:57.283Z,17.60
2019-05-28T19:27:27.222Z,17.60
2019-05-28T19:29:58.080Z,17.60
2019-05-28T19:32:29.430Z,17.60
2019-05-28T19:35:00.009Z,17.60
2019-05-28T19:37:33.815Z,17.60
2019-05-28T19:40:05.362Z,17.50
2019-05-28T19:42:36.007Z,17.40
2019-05-28T19:45:07.183Z,17.40
2019-05-28T19:47:38.281Z,17.40
2019-05-28T19:50:10.858Z,17.40
2019-05-28T19:52:41.684Z,17.40
2019-05-28T19:55:14.958Z,17.30
2019-05-28T19:57:47.787Z,17.20
2019-05-28T20:00:19.033Z,17.30
2019-05-28T20:02:50.042Z,17.30
2019-05-28T20:05:20.741Z,17.30
2019-05-28T20:07:51.549Z,17.30
2019-05-28T20:10:22.389Z,17.30
2019-05-28T20:12:53.109Z,17.30
2019-05-28T20:15:24.455Z,17.40
2019-05-28T20:17:56.829Z,17.40
2019-05-28T20:20:27.613Z,17.40
2019-05-28T20:22:58.027Z,17.40
2019-05-28T20:25:28.532Z,17.40
2019-05-28T20:27:59.212Z,17.30
2019-05-28T20:30:30.144Z,17.30
2019-05-28T20:33:01.734Z,17.30
2019-05-28T20:35:32.388Z,17.20
2019-05-28T20:38:06.424Z,17.20
2019-05-28T20:40:35.803Z,17.20
2019-05-28T20:43:06.646Z,17.20
2019-05-28T20:45:37.390Z,17.10
2019-05-28T20:48:08.677Z,17.10
2019-05-28T20:50:39.528Z,17.10
2019-05-28T20:53:10.154Z,17.10
2019-05-28T20:55:41.008Z,17.00
2019-05-28T20:58:11.515Z,17.00
2019-05-28T21:00:42.187Z,17.00
2019-05-28T21:03:12.588Z,17.00
2019-05-28T21:05:43.527Z,17.00
2019-05-28T21:08:14.088Z,17.00
2019-05-28T21:10:45.633Z,17.00
2019-05-28T21:13:16.139Z,17.00
2019-05-28T21:15:46.720Z,17.00
2019-05-28T21:18:17.320Z,17.00
2019-05-28T21:20:47.812Z,17.00
2019-05-28T21:23:18.384Z,17.00
2019-05-28T21:25:50.040Z,17.00
2019-05-28T21:28:20.709Z,16.90
2019-05-28T21:30:52.444Z,16.90
2019-05-28T21:33:23.154Z,16.80
2019-05-28T21:35:53.881Z,16.80
2019-05-28T21:38:26.048Z,16.80
2019-05-28T21:40:57.671Z,16.70
2019-05-28T21:43:28.759Z,16.70
2019-05-28T21:46:00.417Z,16.80
2019-05-28T21:48:31.547Z,16.70
2019-05-28T21:51:02.951Z,16.80
2019-05-28T21:53:33.694Z,16.80
2019-05-28T21:56:04.341Z,16.80
2019-05-28T21:58:35.115Z,16.80
2019-05-28T22:01:09.545Z,16.80
2019-05-28T22:03:40.200Z,16.80
2019-05-28T22:06:11.192Z,16.90
2019-05-28T22:08:41.967Z,16.90
2019-05-28T22:11:12.574Z,16.90
2019-05-28T22:13:43.092Z,17.00
2019-05-28T22:16:13.807Z,17.00
2019-05-28T22:18:44.651Z,17.00
2019-05-28T22:21:15.524Z,17.00
2019-05-28T22:23:46.376Z,17.00
2019-05-28T22:26:16.916Z,17.00
2019-05-28T22:28:48.028Z,17.00
2019-05-28T22:31:19.576Z,16.90
2019-05-28T22:33:50.568Z,16.90
2019-05-28T22:36:21.148Z,16.90
2019-05-28T22:39:08.971Z,17.10
2019-05-28T22:41:41.774Z,17.10
2019-05-28T22:44:12.544Z,17.10
2019-05-28T22:46:43.128Z,17.10
2019-05-28T22:49:13.756Z,17.20
2019-05-28T22:51:44.744Z,17.20
2019-05-28T22:54:15.415Z,17.20
2019-05-28T22:56:46.210Z,17.20
2019-05-28T22:59:16.859Z,17.20
2019-05-28T23:01:47.694Z,17.20
2019-05-28T23:04:18.330Z,17.20
2019-05-28T23:06:49.039Z,17.10
2019-05-28T23:09:19.747Z,17.10
2019-05-28T23:11:50.345Z,17.10
2019-05-28T23:14:20.882Z,17.20
2019-05-28T23:16:51.545Z,17.30
2019-05-28T23:19:22.073Z,17.30
2019-05-28T23:21:52.836Z,17.40
2019-05-28T23:24:24.334Z,17.40
2019-05-28T23:26:55.201Z,17.40
2019-05-28T23:29:25.705Z,17.30
2019-05-28T23:31:56.509Z,17.30
2019-05-28T23:34:27.166Z,17.20
2019-05-28T23:36:57.953Z,17.20
2019-05-28T23:39:29.667Z,17.20
2019-05-28T23:42:00.049Z,17.30
2019-05-28T23:44:30.681Z,17.30
2019-05-28T23:47:01.609Z,17.30
2019-05-28T23:49:32.408Z,17.30
2019-05-28T23:52:04.809Z,17.30
2019-05-28T23:54:35.607Z,17.30
2019-05-28T23:57:12.484Z,17.40
2019-05-28T23:59:43.043Z,17.40
